createdAt,value
2019-05-19T00:00:41.709Z,14.10
2019-05-19T00:01:41.690Z,14.20
2019-05-19T00:02:41.664Z,14.80
2019-05-19T00:03:41.638Z,15.00
2019-05-19T00:04:41.620Z,14.40
2019-05-19T00:05:41.593Z,13.80
2019-05-19T00:06:41.572Z,14.10
2019-05-19T00:07:41.551Z,13.80
2019-05-19T00:08:41.528Z,13.00
2019-05-19T00:09:41.505Z,12.90
2019-05-19T00:10:41.485Z,12.60
2019-05-19T00:11:41.461Z,12.70
2019-05-19T00:12:41.449Z,12.20
2019-05-19T00:13:41.431Z,12.80
2019-05-19T00:14:41.397Z,11.90
2019-05-19T00:15:41.377Z,11.20
2019-05-19T00:16:41.351Z,11.60
2019-05-19T00:17:41.328Z,11.30
2019-05-19T00:18:41.306Z,12.30
2019-05-19T00:19:41.284Z,12.90
2019-05-19T00:20:41.294Z,13.40
2019-05-19T00:21:41.241Z,13.30
2019-05-19T00:22:41.967Z,13.90
2019-05-19T00:23:41.195Z,12.80
2019-05-19T00:24:41.174Z,13.20
2019-05-19T00:25:41.150Z,14.90
2019-05-19T00:26:41.131Z,15.60
2019-05-19T00:27:41.109Z,15.00
2019-05-19T00:28:41.084Z,15.10
2019-05-19T00:29:41.061Z,15.50
2019-05-19T00:30:41.048Z,15.90
2019-05-19T00:31:41.019Z,16.40
2019-05-19T00:32:40.997Z,17.90
2019-05-19T00:33:41.723Z,16.90
2019-05-19T00:34:40.950Z,16.70
2019-05-19T00:35:40.927Z,17.20
2019-05-19T00:36:40.907Z,17.70
2019-05-19T00:37:40.884Z,17.30
2019-05-19T00:38:40.861Z,17.60
2019-05-19T00:39:40.839Z,18.00
2019-05-19T00:40:40.817Z,18.40
2019-05-19T00:41:40.794Z,19.20
2019-05-19T00:42:40.772Z,18.70
2019-05-19T00:43:40.754Z,18.10
2019-05-19T00:44:42.279Z,19.10
2019-05-19T00:45:40.706Z,18.30
2019-05-19T00:46:40.683Z,18.70
2019-05-19T00:47:40.661Z,19.10
2019-05-19T00:48:40.642Z,19.20
2019-05-19T00:49:41.799Z,18.50
2019-05-19T00:50:40.593Z,18.70
2019-05-19T00:51:40.571Z,17.80
2019-05-19T00:52:40.549Z,18.30
2019-05-19T00:53:40.527Z,19.70
2019-05-19T00:54:40.504Z,17.80
2019-05-19T00:55:40.482Z,13.40
2019-05-19T00:56:40.459Z,11.50
2019-05-19T00:57:40.438Z,8.70
2019-05-19T00:58:40.414Z,7.80
2019-05-19T00:59:40.392Z,8.40
2019-05-19T01:00:40.369Z,7.50
2019-05-19T01:01:40.347Z,7.80
2019-05-19T01:02:40.325Z,7.60
2019-05-19T01:03:40.302Z,7.50
2019-05-19T01:04:40.284Z,8.90
2019-05-19T01:05:41.008Z,9.00
2019-05-19T01:06:40.233Z,9.40
2019-05-19T01:07:40.213Z,9.30
2019-05-19T01:08:40.190Z,8.10
2019-05-19T01:09:40.167Z,8.50
2019-05-19T01:10:40.145Z,9.20
2019-05-19T01:11:40.122Z,9.40
2019-05-19T01:12:40.100Z,10.00
2019-05-19T01:13:40.076Z,9.90
2019-05-19T01:14:40.058Z,10.40
2019-05-19T01:15:40.036Z,10.00
2019-05-19T01:16:40.011Z,9.70
2019-05-19T01:17:39.989Z,9.10
2019-05-19T01:18:39.966Z,9.50
2019-05-19T01:19:39.942Z,9.10
2019-05-19T01:20:39.920Z,9.20
2019-05-19T01:21:39.898Z,10.00
2019-05-19T01:22:40.631Z,9.10
2019-05-19T01:23:39.851Z,9.30
2019-05-19T01:24:39.829Z,7.70
2019-05-19T01:25:39.806Z,7.80
2019-05-19T01:26:39.789Z,7.40
2019-05-19T01:27:39.760Z,7.00
2019-05-19T01:28:39.738Z,7.00
2019-05-19T01:29:39.715Z,6.10
2019-05-19T01:30:39.693Z,6.00
2019-05-19T01:31:39.670Z,5.60
2019-05-19T01:32:39.652Z,5.40
2019-05-19T01:33:40.374Z,5.60
2019-05-19T01:34:39.602Z,5.50
2019-05-19T01:35:39.582Z,5.60
2019-05-19T01:36:39.564Z,5.20
2019-05-19T01:37:39.533Z,5.00
2019-05-19T01:38:39.511Z,5.20
2019-05-19T01:39:39.487Z,5.20
2019-05-19T01:40:39.468Z,5.30
2019-05-19T01:41:39.447Z,4.70
2019-05-19T01:42:39.424Z,4.40
2019-05-19T01:43:39.398Z,4.80
2019-05-19T01:44:39.376Z,5.10
2019-05-19T01:45:39.353Z,5.20
2019-05-19T01:46:39.330Z,4.70
2019-05-19T01:47:39.307Z,4.80
2019-05-19T01:48:39.283Z,5.50
2019-05-19T01:49:40.013Z,5.30
2019-05-19T01:50:39.238Z,4.90
2019-05-19T01:51:39.218Z,4.80
2019-05-19T01:52:39.196Z,4.40
2019-05-19T01:53:39.170Z,4.60
2019-05-19T01:54:39.149Z,4.60
2019-05-19T01:55:39.125Z,4.50
2019-05-19T01:56:39.106Z,4.60
2019-05-19T01:57:39.082Z,4.60
2019-05-19T01:58:39.057Z,4.40
2019-05-19T01:59:39.035Z,4.60
2019-05-19T02:00:39.012Z,4.20
2019-05-19T02:01:38.989Z,4.50
2019-05-19T02:02:38.968Z,5.00
2019-05-19T02:03:38.942Z,5.10
2019-05-19T02:04:38.919Z,5.00
2019-05-19T02:05:38.897Z,5.00
2019-05-19T02:06:38.876Z,5.00
2019-05-19T02:07:38.860Z,5.10
2019-05-19T02:08:38.835Z,5.00
2019-05-19T02:09:38.805Z,5.10
2019-05-19T02:10:38.785Z,4.90
2019-05-19T02:11:38.779Z,4.60
2019-05-19T02:12:38.739Z,4.80
2019-05-19T02:13:38.713Z,4.70
2019-05-19T02:14:38.692Z,5.50
2019-05-19T02:15:38.670Z,5.40
2019-05-19T02:16:39.398Z,5.40
2019-05-19T02:17:38.623Z,4.60
2019-05-19T02:18:38.605Z,4.20
2019-05-19T02:19:38.581Z,4.20
2019-05-19T02:20:38.557Z,4.20
2019-05-19T02:21:38.537Z,4.30
2019-05-19T02:22:38.513Z,4.00
2019-05-19T02:23:38.487Z,4.20
2019-05-19T02:24:38.464Z,4.30
2019-05-19T02:25:38.448Z,5.10
2019-05-19T02:26:38.419Z,4.70
2019-05-19T02:27:38.397Z,5.00
2019-05-19T02:28:38.373Z,4.90
2019-05-19T02:29:38.351Z,5.00
2019-05-19T02:30:38.327Z,4.80
2019-05-19T02:31:38.306Z,4.60
2019-05-19T02:32:38.287Z,5.00
2019-05-19T02:33:38.262Z,4.80
2019-05-19T02:34:38.237Z,5.10
2019-05-19T02:35:38.215Z,5.30
2019-05-19T02:36:38.191Z,5.50
2019-05-19T02:37:38.178Z,5.30
2019-05-19T02:38:38.207Z,5.60
2019-05-19T02:39:38.132Z,5.40
2019-05-19T02:40:38.100Z,5.40
2019-05-19T02:41:38.082Z,5.30
2019-05-19T02:42:38.061Z,5.50
2019-05-19T02:43:38.033Z,6.00
2019-05-19T02:44:38.011Z,6.10
2019-05-19T02:45:37.986Z,6.00
2019-05-19T02:46:37.965Z,6.00
2019-05-19T02:47:37.945Z,6.50
2019-05-19T02:48:38.672Z,6.20
2019-05-19T02:49:37.897Z,6.20
2019-05-19T02:50:51.473Z,7.00
2019-05-19T02:51:37.851Z,7.00
2019-05-19T02:52:37.830Z,6.60
2019-05-19T02:53:37.807Z,7.50
2019-05-19T02:54:37.784Z,7.50
2019-05-19T02:55:37.768Z,7.10
2019-05-19T02:56:37.740Z,7.30
2019-05-19T02:57:37.728Z,7.40
2019-05-19T02:58:37.696Z,7.50
2019-05-19T02:59:37.675Z,7.80
2019-05-19T03:00:37.650Z,7.20
2019-05-19T03:01:37.625Z,7.50
2019-05-19T03:02:37.604Z,7.30
2019-05-19T03:03:37.588Z,7.50
2019-05-19T03:04:39.065Z,7.40
2019-05-19T03:05:37.545Z,7.10
2019-05-19T03:06:37.514Z,7.50
2019-05-19T03:07:37.491Z,7.10
2019-05-19T03:08:37.473Z,7.80
2019-05-19T03:09:37.446Z,7.10
2019-05-19T03:10:37.445Z,7.20
2019-05-19T03:11:37.402Z,7.70
2019-05-19T03:12:37.383Z,8.60
2019-05-19T03:13:37.356Z,7.70
2019-05-19T03:14:37.333Z,8.00
2019-05-19T03:15:37.314Z,7.60
2019-05-19T03:16:37.293Z,7.70
2019-05-19T03:17:37.267Z,8.10
2019-05-19T03:18:37.244Z,8.30
2019-05-19T03:19:37.223Z,8.10
2019-05-19T03:20:37.199Z,8.90
2019-05-19T03:21:37.177Z,8.80
2019-05-19T03:22:37.156Z,8.40
2019-05-19T03:23:37.135Z,8.40
2019-05-19T03:24:37.110Z,8.10
2019-05-19T03:25:37.113Z,8.90
2019-05-19T03:26:37.075Z,9.00
2019-05-19T03:27:37.046Z,8.50
2019-05-19T03:28:37.022Z,8.30
2019-05-19T03:29:36.997Z,8.00
2019-05-19T03:30:36.976Z,8.40
2019-05-19T03:31:36.954Z,8.40
2019-05-19T03:32:37.686Z,8.50
2019-05-19T03:33:36.907Z,8.50
2019-05-19T03:34:36.886Z,8.90
2019-05-19T03:35:36.864Z,8.50
2019-05-19T03:36:36.842Z,8.20
2019-05-19T03:37:36.816Z,8.70
2019-05-19T03:38:36.798Z,8.80
2019-05-19T03:39:36.774Z,8.60
2019-05-19T03:40:36.753Z,8.20
2019-05-19T03:41:36.728Z,8.40
2019-05-19T03:42:36.707Z,9.10
2019-05-19T03:43:36.686Z,9.30
2019-05-19T03:44:36.665Z,9.80
2019-05-19T03:45:36.640Z,9.50
2019-05-19T03:46:36.617Z,9.30
2019-05-19T03:47:36.599Z,10.50
2019-05-19T03:48:37.344Z,10.60
2019-05-19T03:49:36.558Z,9.80
2019-05-19T03:50:36.547Z,10.50
2019-05-19T03:51:36.507Z,10.60
2019-05-19T03:52:36.484Z,11.00
2019-05-19T03:53:36.466Z,11.30
2019-05-19T03:54:36.438Z,11.10
2019-05-19T03:55:36.415Z,10.30
2019-05-19T03:56:36.408Z,10.40
2019-05-19T03:57:36.375Z,10.70
2019-05-19T03:58:36.353Z,10.60
2019-05-19T03:59:36.331Z,11.40
2019-05-19T04:00:36.305Z,11.40
2019-05-19T04:01:36.284Z,10.80
2019-05-19T04:02:36.257Z,12.00
2019-05-19T04:03:36.239Z,12.30
2019-05-19T04:04:36.965Z,12.50
2019-05-19T04:05:36.212Z,12.90
2019-05-19T04:06:36.169Z,12.00
2019-05-19T04:07:36.149Z,11.10
2019-05-19T04:08:36.123Z,11.60
2019-05-19T04:09:36.103Z,11.30
2019-05-19T04:10:36.079Z,11.90
2019-05-19T04:11:36.062Z,11.80
2019-05-19T04:12:36.037Z,10.80
2019-05-19T04:13:36.012Z,10.10
2019-05-19T04:14:36.003Z,10.50
2019-05-19T04:15:37.477Z,10.80
2019-05-19T04:16:35.947Z,10.80
2019-05-19T04:17:35.921Z,10.20
2019-05-19T04:18:35.899Z,10.30
2019-05-19T04:19:35.881Z,10.20
2019-05-19T04:20:35.855Z,10.60
2019-05-19T04:21:48.143Z,10.00
2019-05-19T04:22:35.811Z,9.90
2019-05-19T04:23:35.869Z,10.00
2019-05-19T04:24:35.765Z,10.00
2019-05-19T04:25:35.744Z,10.00
2019-05-19T04:26:35.723Z,9.90
2019-05-19T04:27:35.699Z,9.80
2019-05-19T04:28:35.678Z,9.90
2019-05-19T04:29:39.158Z,9.60
2019-05-19T04:30:35.638Z,10.10
2019-05-19T04:31:35.620Z,9.80
2019-05-19T04:32:35.592Z,9.80
2019-05-19T04:33:35.562Z,9.40
2019-05-19T04:34:35.541Z,9.40
2019-05-19T04:35:35.526Z,9.40
2019-05-19T04:36:35.497Z,10.00
2019-05-19T04:37:35.474Z,10.00
2019-05-19T04:38:35.453Z,9.30
2019-05-19T04:39:35.429Z,9.70
2019-05-19T04:40:35.409Z,9.70
2019-05-19T04:41:35.383Z,9.60
2019-05-19T04:42:35.363Z,9.60
2019-05-19T04:43:35.338Z,9.60
2019-05-19T04:44:35.318Z,10.40
2019-05-19T04:45:35.296Z,10.30
2019-05-19T04:46:35.274Z,11.00
2019-05-19T04:47:35.256Z,10.40
2019-05-19T04:48:35.241Z,10.20
2019-05-19T04:49:35.205Z,10.00
2019-05-19T04:50:35.187Z,10.10
2019-05-19T04:51:35.170Z,10.00
2019-05-19T04:52:35.144Z,10.10
2019-05-19T04:53:35.116Z,10.60
2019-05-19T04:54:35.094Z,10.70
2019-05-19T04:55:35.072Z,10.40
2019-05-19T04:56:35.050Z,10.20
2019-05-19T04:57:35.027Z,9.90
2019-05-19T04:58:35.006Z,9.70
2019-05-19T04:59:34.981Z,10.00
2019-05-19T05:00:34.961Z,8.80
2019-05-19T05:01:34.985Z,9.30
2019-05-19T05:02:34.916Z,9.10
2019-05-19T05:03:34.895Z,9.10
2019-05-19T05:04:34.874Z,9.40
2019-05-19T05:05:34.848Z,9.10
2019-05-19T05:06:34.827Z,8.60
2019-05-19T05:07:34.808Z,8.00
2019-05-19T05:08:34.784Z,8.00
2019-05-19T05:09:34.760Z,9.00
2019-05-19T05:10:34.750Z,12.80
2019-05-19T05:11:34.716Z,11.70
2019-05-19T05:12:34.695Z,11.80
2019-05-19T05:13:34.671Z,10.20
2019-05-19T05:14:34.649Z,7.80
2019-05-19T05:15:35.383Z,7.60
2019-05-19T05:16:34.605Z,8.40
2019-05-19T05:17:34.583Z,8.50
2019-05-19T05:18:34.560Z,8.00
2019-05-19T05:19:34.539Z,8.60
2019-05-19T05:20:34.516Z,9.10
2019-05-19T05:21:34.494Z,8.50
2019-05-19T05:22:34.471Z,8.80
2019-05-19T05:23:34.449Z,8.30
2019-05-19T05:24:34.437Z,8.00
2019-05-19T05:25:34.407Z,7.50
2019-05-19T05:26:34.383Z,7.40
2019-05-19T05:27:34.361Z,6.70
2019-05-19T05:28:34.339Z,6.90
2019-05-19T05:29:34.316Z,7.60
2019-05-19T05:30:34.295Z,8.00
2019-05-19T05:31:34.278Z,7.50
2019-05-19T05:32:34.251Z,7.50
2019-05-19T05:33:34.247Z,7.90
2019-05-19T05:34:34.211Z,7.70
2019-05-19T05:35:34.207Z,7.90
2019-05-19T05:36:34.164Z,7.70
2019-05-19T05:37:34.139Z,8.40
2019-05-19T05:38:34.118Z,7.50
2019-05-19T05:39:34.094Z,8.40
2019-05-19T05:40:34.074Z,8.10
2019-05-19T05:41:34.051Z,8.10
2019-05-19T05:42:34.028Z,8.00
2019-05-19T05:43:34.007Z,7.40
2019-05-19T05:44:33.986Z,7.10
2019-05-19T05:45:33.962Z,7.20
2019-05-19T05:46:33.940Z,7.30
2019-05-19T05:47:33.920Z,6.90
2019-05-19T05:48:35.406Z,7.20
2019-05-19T05:49:33.874Z,7.20
2019-05-19T05:50:33.858Z,7.80
2019-05-19T05:51:33.830Z,7.50
2019-05-19T05:52:38.576Z,7.80
2019-05-19T05:53:33.784Z,7.40
2019-05-19T05:54:33.762Z,7.10
2019-05-19T05:55:33.746Z,7.90
2019-05-19T05:56:33.719Z,7.30
2019-05-19T05:57:33.695Z,7.60
2019-05-19T05:58:33.672Z,7.20
2019-05-19T05:59:33.650Z,7.90
2019-05-19T06:00:33.630Z,8.00
2019-05-19T06:01:33.608Z,7.20
2019-05-19T06:02:33.584Z,7.20
2019-05-19T06:03:33.561Z,7.90
2019-05-19T06:04:33.542Z,6.70
2019-05-19T06:05:33.519Z,7.20
2019-05-19T06:06:33.495Z,7.60
2019-05-19T06:07:33.472Z,7.10
2019-05-19T06:08:33.450Z,6.90
2019-05-19T06:09:33.427Z,7.10
2019-05-19T06:10:33.410Z,7.90
2019-05-19T06:11:33.385Z,7.50
2019-05-19T06:12:33.362Z,7.60
2019-05-19T06:13:33.339Z,7.50
2019-05-19T06:14:33.319Z,8.00
2019-05-19T06:15:33.296Z,7.90
2019-05-19T06:16:33.273Z,8.10
2019-05-19T06:17:33.254Z,7.40
2019-05-19T06:18:33.229Z,7.80
2019-05-19T06:19:33.208Z,8.10
2019-05-19T06:20:33.934Z,8.20
2019-05-19T06:21:33.164Z,8.60
2019-05-19T06:22:33.143Z,7.70
2019-05-19T06:23:33.119Z,7.60
2019-05-19T06:24:33.097Z,7.30
2019-05-19T06:25:33.097Z,7.30
2019-05-19T06:26:33.068Z,6.70
2019-05-19T06:27:33.032Z,6.60
2019-05-19T06:28:33.011Z,6.80
2019-05-19T06:29:32.989Z,6.60
2019-05-19T06:30:32.967Z,6.20
2019-05-19T06:31:32.945Z,6.50
2019-05-19T06:32:32.923Z,7.10
2019-05-19T06:33:32.902Z,6.30
2019-05-19T06:34:32.883Z,6.80
2019-05-19T06:35:32.858Z,6.00
2019-05-19T06:36:35.087Z,7.00
2019-05-19T06:37:32.816Z,6.70
2019-05-19T06:38:32.798Z,6.90
2019-05-19T06:39:32.771Z,7.30
2019-05-19T06:40:32.749Z,7.10
2019-05-19T06:41:32.727Z,7.00
2019-05-19T06:42:32.712Z,6.90
2019-05-19T06:43:32.685Z,7.10
2019-05-19T06:44:32.662Z,6.50
2019-05-19T06:45:32.654Z,6.10
2019-05-19T06:46:32.626Z,5.70
2019-05-19T06:47:32.609Z,6.40
2019-05-19T06:48:32.576Z,6.00
2019-05-19T06:49:32.556Z,6.20
2019-05-19T06:50:32.533Z,6.60
2019-05-19T06:51:32.511Z,5.90
2019-05-19T06:52:32.489Z,6.10
2019-05-19T06:53:32.465Z,5.60
2019-05-19T06:54:32.445Z,6.00
2019-05-19T06:55:32.431Z,5.60
2019-05-19T06:56:32.403Z,5.60
2019-05-19T06:57:32.379Z,6.00
2019-05-19T06:58:32.358Z,5.90
2019-05-19T06:59:32.337Z,6.00
2019-05-19T07:00:32.314Z,6.10
2019-05-19T07:01:32.296Z,5.70
2019-05-19T07:02:32.269Z,5.90
2019-05-19T07:03:32.248Z,5.90
2019-05-19T07:04:32.231Z,5.70
2019-05-19T07:05:32.204Z,5.60
2019-05-19T07:06:34.192Z,5.90
2019-05-19T07:07:32.161Z,5.60
2019-05-19T07:08:32.142Z,5.70
2019-05-19T07:09:32.130Z,5.70
2019-05-19T07:10:32.095Z,5.30
2019-05-19T07:11:32.075Z,5.20
2019-05-19T07:12:32.055Z,5.30
2019-05-19T07:13:32.030Z,5.60
2019-05-19T07:14:32.009Z,5.80
2019-05-19T07:15:31.987Z,5.50
2019-05-19T07:16:31.970Z,5.10
2019-05-19T07:17:31.946Z,5.30
2019-05-19T07:18:31.921Z,5.40
2019-05-19T07:19:31.918Z,5.30
2019-05-19T07:20:31.879Z,4.90
2019-05-19T07:21:31.861Z,5.10
2019-05-19T07:22:31.835Z,5.10
2019-05-19T07:23:31.814Z,5.30
2019-05-19T07:24:31.793Z,5.60
2019-05-19T07:25:31.772Z,5.20
2019-05-19T07:26:31.751Z,4.90
2019-05-19T07:27:31.734Z,4.70
2019-05-19T07:28:31.709Z,4.50
2019-05-19T07:29:31.689Z,5.20
2019-05-19T07:30:32.418Z,4.90
2019-05-19T07:31:31.645Z,4.90
2019-05-19T07:32:31.628Z,4.80
2019-05-19T07:33:31.602Z,5.00
2019-05-19T07:34:31.661Z,5.10
2019-05-19T07:35:31.561Z,5.50
2019-05-19T07:36:31.540Z,5.30
2019-05-19T07:37:31.528Z,5.00
2019-05-19T07:38:31.497Z,5.10
2019-05-19T07:39:31.479Z,4.60
2019-05-19T07:40:31.456Z,4.90
2019-05-19T07:41:31.435Z,5.50
2019-05-19T07:42:31.419Z,5.40
2019-05-19T07:43:31.395Z,6.00
2019-05-19T07:44:31.374Z,5.60
2019-05-19T07:45:31.353Z,5.70
2019-05-19T07:46:31.353Z,5.40
2019-05-19T07:47:31.312Z,5.70
2019-05-19T07:48:31.294Z,5.60
2019-05-19T07:49:31.271Z,5.30
2019-05-19T07:50:31.253Z,5.50
2019-05-19T07:51:31.992Z,5.20
2019-05-19T07:52:31.211Z,5.10
2019-05-19T07:53:42.177Z,5.40
2019-05-19T07:54:31.168Z,5.70
2019-05-19T07:55:31.147Z,5.00
2019-05-19T07:56:31.130Z,5.80
2019-05-19T07:57:31.108Z,6.20
2019-05-19T07:58:31.093Z,5.80
2019-05-19T07:59:31.066Z,5.10
2019-05-19T08:00:31.110Z,5.20
2019-05-19T08:01:31.026Z,5.50
2019-05-19T08:02:31.034Z,5.70
2019-05-19T08:03:31.038Z,5.60
2019-05-19T08:04:30.993Z,5.60
2019-05-19T08:05:30.945Z,5.50
2019-05-19T08:06:30.926Z,5.30
2019-05-19T08:07:30.909Z,5.50
2019-05-19T08:08:30.886Z,5.10
2019-05-19T08:09:30.863Z,5.60
2019-05-19T08:10:30.843Z,5.40
2019-05-19T08:11:30.824Z,5.10
2019-05-19T08:12:30.802Z,5.70
2019-05-19T08:13:30.781Z,5.20
2019-05-19T08:14:30.760Z,4.70
2019-05-19T08:15:30.744Z,4.90
2019-05-19T08:16:30.722Z,8.60
2019-05-19T08:17:30.699Z,9.90
2019-05-19T08:18:30.678Z,7.30
2019-05-19T08:19:30.705Z,5.80
2019-05-19T08:20:30.637Z,5.80
2019-05-19T08:21:30.619Z,5.30
2019-05-19T08:22:30.611Z,5.40
2019-05-19T08:23:30.575Z,6.00
2019-05-19T08:24:30.555Z,4.80
2019-05-19T08:25:30.545Z,4.30
2019-05-19T08:26:30.513Z,3.70
2019-05-19T08:27:30.492Z,4.10
2019-05-19T08:28:30.472Z,4.30
2019-05-19T08:29:30.451Z,4.30
2019-05-19T08:30:30.495Z,4.30
2019-05-19T08:31:30.467Z,4.40
2019-05-19T08:32:30.390Z,4.70
2019-05-19T08:33:30.374Z,4.20
2019-05-19T08:34:30.349Z,4.10
2019-05-19T08:35:30.327Z,4.30
2019-05-19T08:36:30.308Z,4.20
2019-05-19T08:37:30.286Z,4.60
2019-05-19T08:38:30.265Z,4.40
2019-05-19T08:39:30.246Z,4.20
2019-05-19T08:40:30.237Z,4.10
2019-05-19T08:41:30.203Z,4.10
2019-05-19T08:42:30.187Z,3.70
2019-05-19T08:43:30.160Z,4.20
2019-05-19T08:44:30.140Z,4.00
2019-05-19T08:45:30.120Z,3.60
2019-05-19T08:46:30.099Z,3.70
2019-05-19T08:47:30.077Z,3.50
2019-05-19T08:48:30.060Z,3.60
2019-05-19T08:49:30.112Z,3.50
2019-05-19T08:50:30.017Z,3.20
2019-05-19T08:51:29.996Z,3.30
2019-05-19T08:52:29.976Z,3.40
2019-05-19T08:53:29.954Z,3.80
2019-05-19T08:54:29.935Z,3.90
2019-05-19T08:55:29.915Z,4.00
2019-05-19T08:56:29.895Z,4.00
2019-05-19T08:57:29.873Z,3.80
2019-05-19T08:58:29.853Z,3.70
2019-05-19T08:59:29.833Z,3.80
2019-05-19T09:00:29.813Z,3.80
2019-05-19T09:01:29.793Z,3.60
2019-05-19T09:02:29.773Z,3.60
2019-05-19T09:03:29.752Z,4.00
2019-05-19T09:04:29.732Z,3.40
2019-05-19T09:05:29.717Z,3.30
2019-05-19T09:06:29.690Z,3.40
2019-05-19T09:07:29.670Z,3.60
2019-05-19T09:08:29.671Z,3.70
2019-05-19T09:09:29.632Z,3.80
2019-05-19T09:10:29.607Z,3.70
2019-05-19T09:11:29.588Z,3.50
2019-05-19T09:12:29.568Z,3.50
2019-05-19T09:13:29.546Z,3.70
2019-05-19T09:14:29.531Z,3.70
2019-05-19T09:15:29.506Z,3.80
2019-05-19T09:16:29.487Z,3.80
2019-05-19T09:17:29.465Z,3.50
2019-05-19T09:18:29.447Z,4.00
2019-05-19T09:19:29.425Z,3.80
2019-05-19T09:20:29.407Z,3.80
2019-05-19T09:21:29.393Z,3.40
2019-05-19T09:22:29.365Z,3.20
2019-05-19T09:23:29.352Z,3.60
2019-05-19T09:24:31.001Z,3.60
2019-05-19T09:25:29.304Z,3.10
2019-05-19T09:26:29.287Z,3.20
2019-05-19T09:27:29.266Z,3.50
2019-05-19T09:28:29.248Z,3.80
2019-05-19T09:29:29.226Z,3.90
2019-05-19T09:30:29.206Z,4.20
2019-05-19T09:31:29.189Z,4.10
2019-05-19T09:32:29.169Z,3.70
2019-05-19T09:33:29.148Z,3.10
2019-05-19T09:34:29.131Z,3.50
2019-05-19T09:35:29.109Z,3.30
2019-05-19T09:36:29.090Z,3.20
2019-05-19T09:37:29.073Z,3.20
2019-05-19T09:38:29.052Z,3.70
2019-05-19T09:39:29.031Z,4.20
2019-05-19T09:40:29.031Z,3.60
2019-05-19T09:41:28.995Z,3.60
2019-05-19T09:42:28.975Z,3.50
2019-05-19T09:43:28.957Z,3.60
2019-05-19T09:44:28.990Z,3.30
2019-05-19T09:45:28.918Z,3.20
2019-05-19T09:46:28.900Z,3.00
2019-05-19T09:47:28.881Z,3.10
2019-05-19T09:48:28.893Z,2.90
2019-05-19T09:49:28.843Z,2.90
2019-05-19T09:50:28.826Z,3.00
2019-05-19T09:51:28.807Z,3.00
2019-05-19T09:52:28.818Z,3.50
2019-05-19T09:53:28.773Z,2.90
2019-05-19T09:54:28.753Z,3.30
2019-05-19T09:55:28.733Z,3.00
2019-05-19T09:56:28.716Z,3.20
2019-05-19T09:57:28.697Z,3.10
2019-05-19T09:58:28.677Z,3.10
2019-05-19T09:59:28.659Z,3.50
2019-05-19T10:00:28.642Z,3.30
2019-05-19T10:01:28.623Z,3.20
2019-05-19T10:02:28.608Z,3.30
2019-05-19T10:03:28.589Z,2.90
2019-05-19T10:04:28.579Z,3.20
2019-05-19T10:05:28.551Z,3.50
2019-05-19T10:06:28.534Z,2.80
2019-05-19T10:07:28.517Z,2.50
2019-05-19T10:08:28.499Z,2.30
2019-05-19T10:09:28.482Z,2.60
2019-05-19T10:10:28.463Z,2.60
2019-05-19T10:11:28.467Z,2.90
2019-05-19T10:12:28.428Z,3.30
2019-05-19T10:13:29.161Z,3.30
2019-05-19T10:14:28.393Z,2.90
2019-05-19T10:15:28.405Z,3.40
2019-05-19T10:16:28.413Z,3.00
2019-05-19T10:17:28.339Z,3.40
2019-05-19T10:18:28.321Z,3.90
2019-05-19T10:19:28.304Z,3.50
2019-05-19T10:20:28.285Z,3.50
2019-05-19T10:21:28.266Z,3.80
2019-05-19T10:22:28.250Z,3.70
2019-05-19T10:23:28.230Z,3.60
2019-05-19T10:24:28.213Z,3.60
2019-05-19T10:25:28.192Z,3.80
2019-05-19T10:26:28.174Z,3.90
2019-05-19T10:27:28.155Z,3.20
2019-05-19T10:28:28.137Z,3.20
2019-05-19T10:29:28.258Z,3.20
2019-05-19T10:30:28.100Z,3.50
2019-05-19T10:31:28.080Z,3.60
2019-05-19T10:32:28.062Z,3.90
2019-05-19T10:33:28.045Z,3.50
2019-05-19T10:34:28.029Z,3.40
2019-05-19T10:35:28.007Z,3.20
2019-05-19T10:36:27.988Z,3.40
2019-05-19T10:37:27.966Z,3.30
2019-05-19T10:38:27.949Z,3.30
2019-05-19T10:39:27.930Z,3.60
2019-05-19T10:40:27.910Z,3.20
2019-05-19T10:41:27.892Z,3.20
2019-05-19T10:42:27.880Z,2.90
2019-05-19T10:43:27.857Z,3.20
2019-05-19T10:44:27.835Z,3.00
2019-05-19T10:45:27.823Z,3.30
2019-05-19T10:46:27.798Z,3.10
2019-05-19T10:47:27.780Z,3.20
2019-05-19T10:48:27.762Z,2.80
2019-05-19T10:49:27.743Z,3.10
2019-05-19T10:50:27.726Z,2.80
2019-05-19T10:51:27.726Z,2.80
2019-05-19T10:52:27.687Z,3.20
2019-05-19T10:53:27.669Z,2.70
2019-05-19T10:54:27.651Z,3.00
2019-05-19T10:55:36.159Z,2.70
2019-05-19T10:56:27.614Z,2.70
2019-05-19T10:57:27.595Z,2.70
2019-05-19T10:58:27.578Z,2.80
2019-05-19T10:59:27.559Z,2.80
2019-05-19T11:00:28.417Z,2.80
2019-05-19T11:01:27.529Z,2.90
2019-05-19T11:02:27.505Z,2.50
2019-05-19T11:03:27.490Z,2.70
2019-05-19T11:04:27.470Z,2.60
2019-05-19T11:05:27.450Z,2.30
2019-05-19T11:06:27.433Z,2.40
2019-05-19T11:07:27.465Z,2.80
2019-05-19T11:08:27.399Z,2.70
2019-05-19T11:09:27.381Z,3.00
2019-05-19T11:10:27.365Z,2.50
2019-05-19T11:11:27.346Z,2.70
2019-05-19T11:12:27.329Z,2.40
2019-05-19T11:13:27.309Z,2.50
2019-05-19T11:14:27.292Z,2.50
2019-05-19T11:15:27.278Z,2.60
2019-05-19T11:16:27.258Z,2.50
2019-05-19T11:17:27.241Z,2.50
2019-05-19T11:18:27.223Z,2.50
2019-05-19T11:19:27.204Z,2.60
2019-05-19T11:20:27.187Z,2.30
2019-05-19T11:21:27.174Z,2.90
2019-05-19T11:22:27.151Z,2.60
2019-05-19T11:23:27.146Z,2.70
2019-05-19T11:24:27.116Z,2.70
2019-05-19T11:25:34.182Z,2.70
2019-05-19T11:26:27.080Z,2.60
2019-05-19T11:27:27.065Z,2.60
2019-05-19T11:28:27.045Z,2.70
2019-05-19T11:29:27.026Z,2.80
2019-05-19T11:30:27.010Z,2.80
2019-05-19T11:31:26.991Z,2.60
2019-05-19T11:32:26.974Z,3.00
2019-05-19T11:33:26.955Z,2.70
2019-05-19T11:34:26.939Z,2.80
2019-05-19T11:35:26.920Z,2.80
2019-05-19T11:36:26.904Z,2.80
2019-05-19T11:37:26.884Z,2.60
2019-05-19T11:38:26.867Z,2.70
2019-05-19T11:39:26.849Z,2.90
2019-05-19T11:40:26.835Z,3.00
2019-05-19T11:41:26.814Z,2.80
2019-05-19T11:42:26.796Z,2.70
2019-05-19T11:43:26.785Z,2.40
2019-05-19T11:44:26.764Z,2.40
2019-05-19T11:45:26.742Z,2.30
2019-05-19T11:46:26.725Z,2.40
2019-05-19T11:47:26.710Z,2.40
2019-05-19T11:48:26.693Z,2.30
2019-05-19T11:49:26.676Z,2.60
2019-05-19T11:50:26.664Z,2.70
2019-05-19T11:51:26.638Z,2.80
2019-05-19T11:52:26.626Z,2.80
2019-05-19T11:53:26.603Z,2.80
2019-05-19T11:54:26.586Z,2.40
2019-05-19T11:55:26.568Z,2.30
2019-05-19T11:56:26.552Z,2.30
2019-05-19T11:57:26.531Z,2.40
2019-05-19T11:58:26.515Z,2.10
2019-05-19T11:59:27.249Z,2.20
2019-05-19T12:00:26.483Z,2.20
2019-05-19T12:01:26.480Z,2.00
2019-05-19T12:02:26.444Z,2.10
2019-05-19T12:03:26.427Z,2.10
2019-05-19T12:04:26.409Z,1.80
2019-05-19T12:05:26.411Z,1.80
2019-05-19T12:06:38.700Z,2.20
2019-05-19T12:07:26.359Z,1.90
2019-05-19T12:08:26.339Z,1.80
2019-05-19T12:09:26.327Z,1.90
2019-05-19T12:10:26.304Z,1.80
2019-05-19T12:11:26.290Z,1.70
2019-05-19T12:12:26.273Z,1.70
2019-05-19T12:13:26.254Z,1.40
2019-05-19T12:14:26.238Z,1.70
2019-05-19T12:15:26.222Z,1.60
2019-05-19T12:16:26.207Z,1.40
2019-05-19T12:17:26.191Z,1.90
2019-05-19T12:18:26.180Z,1.60
2019-05-19T12:19:26.157Z,1.70
2019-05-19T12:20:26.141Z,1.70
2019-05-19T12:21:26.125Z,1.90
2019-05-19T12:22:26.108Z,1.80
2019-05-19T12:23:26.093Z,1.60
2019-05-19T12:24:26.102Z,1.50
2019-05-19T12:25:26.064Z,1.80
2019-05-19T12:26:26.054Z,1.60
2019-05-19T12:27:26.029Z,1.80
2019-05-19T12:28:26.017Z,1.60
2019-05-19T12:29:25.997Z,2.10
2019-05-19T12:30:25.982Z,1.70
2019-05-19T12:31:25.970Z,1.70
2019-05-19T12:32:25.951Z,1.80
2019-05-19T12:33:25.934Z,1.90
2019-05-19T12:34:25.924Z,1.80
2019-05-19T12:35:25.904Z,2.10
2019-05-19T12:36:25.895Z,2.00
2019-05-19T12:37:25.873Z,1.90
2019-05-19T12:38:25.856Z,1.70
2019-05-19T12:39:25.840Z,1.80
2019-05-19T12:40:25.829Z,1.90
2019-05-19T12:41:25.808Z,1.80
2019-05-19T12:42:25.791Z,1.90
2019-05-19T12:43:25.774Z,1.70
2019-05-19T12:44:25.758Z,2.30
2019-05-19T12:45:25.748Z,1.90
2019-05-19T12:46:25.725Z,1.70
2019-05-19T12:47:25.708Z,1.60
2019-05-19T12:48:25.692Z,1.80
2019-05-19T12:49:25.675Z,1.60
2019-05-19T12:50:25.658Z,1.70
2019-05-19T12:51:26.872Z,1.50
2019-05-19T12:52:25.624Z,1.80
2019-05-19T12:53:25.607Z,2.20
2019-05-19T12:54:25.754Z,1.80
2019-05-19T12:55:25.573Z,2.20
2019-05-19T12:56:38.593Z,2.40
2019-05-19T12:57:25.539Z,2.00
2019-05-19T12:58:25.522Z,2.30
2019-05-19T12:59:25.505Z,2.30
2019-05-19T13:00:25.488Z,2.00
2019-05-19T13:01:25.471Z,1.90
2019-05-19T13:02:25.455Z,1.70
2019-05-19T13:03:25.437Z,2.00
2019-05-19T13:04:25.424Z,1.90
2019-05-19T13:05:25.403Z,2.10
2019-05-19T13:06:25.387Z,1.90
2019-05-19T13:07:25.370Z,2.20
2019-05-19T13:08:25.354Z,1.70
2019-05-19T13:09:25.337Z,2.10
2019-05-19T13:10:25.321Z,1.70
2019-05-19T13:11:25.305Z,1.70
2019-05-19T13:12:25.288Z,1.80
2019-05-19T13:13:25.269Z,1.60
2019-05-19T13:14:25.251Z,1.70